Time;durP1;ratioP1;P1;durP2;ratioP2;P2;SDS_P1;SDS_P2;PMS_P1;PMS_P2;Temp;Humidity;BMP_temperature;BMP_pressure;BME280_temperature;BME280_humidity;BME280_pressure;Samples;Min_cycle;Max_cycle;Signal;HPM_P1;HPM_P2
2023/12/26 00:00:20;;;;;;;;;;;10.10;99.90;;;;;;5030765;28;19947;-66
2023/12/26 00:02:48;;;;;;;;;;;10.10;99.90;;;;;;5030691;28;19984;-66
2023/12/26 00:05:16;;;;;;;;;;;10.10;99.90;;;;;;5024074;28;20396;-66
2023/12/26 00:07:45;;;;;;;;;;;10.00;99.90;;;;;;5038844;28;19921;-66
2023/12/26 00:10:15;;;;;;;;;;;10.00;99.90;;;;;;5029503;28;20011;-66
2023/12/26 00:12:44;;;;;;;;;;;10.00;99.90;;;;;;5030260;28;19967;-66
2023/12/26 00:15:12;;;;;;;;;;;10.00;99.90;;;;;;5031277;28;19983;-67
2023/12/26 00:17:40;;;;;;;;;;;10.00;99.90;;;;;;5028937;28;20011;-66
2023/12/26 00:20:08;;;;;;;;;;;10.10;99.90;;;;;;5021033;28;20381;-67
2023/12/26 00:22:36;;;;;;;;;;;10.00;99.90;;;;;;5035398;28;19921;-66
2023/12/26 00:25:04;;;;;;;;;;;10.10;99.90;;;;;;5029945;28;19928;-66
2023/12/26 00:27:32;;;;;;;;;;;10.10;99.90;;;;;;5030515;28;19983;-67
2023/12/26 00:30:02;;;;;;;;;;;10.00;99.90;;;;;;5029672;28;19979;-66
2023/12/26 00:32:30;;;;;;;;;;;10.00;99.90;;;;;;5031889;28;19935;-66
2023/12/26 00:34:58;;;;;;;;;;;10.00;99.90;;;;;;5033994;28;19925;-65
2023/12/26 00:37:26;;;;;;;;;;;10.10;99.90;;;;;;5032232;28;20019;-66
2023/12/26 00:39:54;;;;;;;;;;;10.00;99.90;;;;;;5030572;28;19929;-66
2023/12/26 00:42:21;;;;;;;;;;;10.00;99.90;;;;;;5031486;28;20430;-66
2023/12/26 00:44:49;;;;;;;;;;;10.10;99.90;;;;;;5030914;28;19925;-66
2023/12/26 00:47:19;;;;;;;;;;;10.00;99.90;;;;;;5033809;28;19972;-66
2023/12/26 00:49:47;;;;;;;;;;;10.00;99.90;;;;;;5027840;28;20534;-65
2023/12/26 00:52:15;;;;;;;;;;;10.00;99.90;;;;;;5023055;28;19921;-66
2023/12/26 00:54:42;;;;;;;;;;;10.00;99.90;;;;;;5031189;28;20020;-66
2023/12/26 00:57:10;;;;;;;;;;;10.00;99.90;;;;;;5030890;28;19925;-65
2023/12/26 00:59:38;;;;;;;;;;;10.00;99.90;;;;;;5030455;28;19932;-65
2023/12/26 01:02:06;;;;;;;;;;;10.00;99.90;;;;;;5030847;28;19928;-65
2023/12/26 01:04:35;;;;;;;;;;;10.00;99.90;;;;;;5030690;28;19921;-66
2023/12/26 01:07:02;;;;;;;;;;;10.00;99.90;;;;;;5030541;28;20336;-65
2023/12/26 01:09:30;;;;;;;;;;;10.00;99.90;;;;;;5030245;28;19921;-66
2023/12/26 01:11:58;;;;;;;;;;;9.90;99.90;;;;;;5031490;28;19982;-65
2023/12/26 01:14:26;;;;;;;;;;;10.00;99.90;;;;;;5019351;28;19929;-66
2023/12/26 01:16:53;;;;;;;;;;;9.90;99.90;;;;;;5027377;28;19921;-66
2023/12/26 01:19:21;;;;;;;;;;;10.00;99.90;;;;;;5030012;28;19925;-66
2023/12/26 01:21:50;;;;;;;;;;;9.90;99.90;;;;;;5030782;28;19925;-66
2023/12/26 01:24:18;;;;;;;;;;;9.90;99.90;;;;;;5030682;28;19927;-66
2023/12/26 01:26:46;;;;;;;;;;;9.90;99.90;;;;;;5030539;28;20295;-66
2023/12/26 01:29:14;;;;;;;;;;;10.00;99.90;;;;;;5029363;28;19921;-66
2023/12/26 01:31:42;;;;;;;;;;;10.00;99.90;;;;;;5030335;28;20303;-66
2023/12/26 01:34:10;;;;;;;;;;;10.00;99.90;;;;;;5030362;28;19955;-67
2023/12/26 01:36:37;;;;;;;;;;;10.00;99.90;;;;;;5030521;28;19928;-65
2023/12/26 01:39:08;;;;;;;;;;;10.00;99.90;;;;;;5029293;28;20337;-67
2023/12/26 01:41:36;;;;;;;;;;;10.00;99.90;;;;;;5030514;28;20434;-66
2023/12/26 01:44:04;;;;;;;;;;;10.00;99.90;;;;;;5030155;28;19921;-66
2023/12/26 01:46:31;;;;;;;;;;;10.00;99.90;;;;;;5030356;28;20300;-65
2023/12/26 01:49:00;;;;;;;;;;;10.00;99.90;;;;;;5025484;28;19925;-65
2023/12/26 01:51:29;;;;;;;;;;;10.00;99.90;;;;;;5030499;28;19996;-65
2023/12/26 01:53:58;;;;;;;;;;;10.00;99.90;;;;;;5030103;28;19921;-65
2023/12/26 01:56:29;;;;;;;;;;;10.00;99.90;;;;;;5030455;28;19920;-65
2023/12/26 01:58:57;;;;;;;;;;;10.00;99.90;;;;;;5030188;28;20011;-65
2023/12/26 02:01:24;;;;;;;;;;;10.00;99.90;;;;;;5030424;28;19928;-66
2023/12/26 02:03:54;;;;;;;;;;;10.00;99.90;;;;;;5030321;28;19921;-66
2023/12/26 02:06:22;;;;;;;;;;;10.00;99.90;;;;;;5022336;28;19921;-66
2023/12/26 02:08:50;;;;;;;;;;;9.90;99.90;;;;;;5031700;28;19972;-65
2023/12/26 02:11:18;;;;;;;;;;;9.90;99.90;;;;;;5029665;28;19928;-65
2023/12/26 02:13:47;;;;;;;;;;;9.90;99.90;;;;;;5030318;28;19947;-65
2023/12/26 02:16:18;;;;;;;;;;;9.90;99.90;;;;;;5034372;28;19921;-66
2023/12/26 02:18:46;;;;;;;;;;;9.90;99.90;;;;;;5033196;28;19936;-66
2023/12/26 02:21:14;;;;;;;;;;;9.90;99.90;;;;;;5033726;28;19927;-65
2023/12/26 02:23:42;;;;;;;;;;;9.90;99.90;;;;;;5033844;28;19921;-65
2023/12/26 02:26:12;;;;;;;;;;;10.00;99.90;;;;;;5033658;28;19925;-67
2023/12/26 02:28:40;;;;;;;;;;;10.00;99.90;;;;;;5032793;28;20585;-67
2023/12/26 02:31:08;;;;;;;;;;;10.00;99.90;;;;;;5033592;28;19920;-66
2023/12/26 02:33:36;;;;;;;;;;;10.00;99.90;;;;;;5034733;28;20594;-67
2023/12/26 02:36:05;;;;;;;;;;;10.10;99.90;;;;;;5040075;28;20163;-67
2023/12/26 02:38:33;;;;;;;;;;;10.10;99.90;;;;;;5032750;28;19921;-66
2023/12/26 02:41:00;;;;;;;;;;;10.10;99.90;;;;;;5033258;28;20011;-65
2023/12/26 02:43:30;;;;;;;;;;;10.10;99.90;;;;;;5033610;28;19921;-64
2023/12/26 02:45:57;;;;;;;;;;;10.00;99.90;;;;;;5033594;28;19971;-65
2023/12/26 02:48:25;;;;;;;;;;;10.00;99.90;;;;;;5033191;28;19929;-65
2023/12/26 02:50:53;;;;;;;;;;;10.00;99.90;;;;;;5028968;28;19921;-65
2023/12/26 02:53:21;;;;;;;;;;;10.00;99.90;;;;;;5033023;28;20040;-66
2023/12/26 02:55:50;;;;;;;;;;;10.00;99.90;;;;;;5033475;28;19921;-67
2023/12/26 02:58:18;;;;;;;;;;;10.00;99.90;;;;;;5032511;28;20435;-66
2023/12/26 03:00:47;;;;;;;;;;;10.00;99.90;;;;;;5035589;28;19967;-67
2023/12/26 03:03:16;;;;;;;;;;;10.00;99.90;;;;;;5034277;28;19921;-67
2023/12/26 03:05:43;;;;;;;;;;;10.00;99.90;;;;;;5032981;28;19975;-65
2023/12/26 03:08:11;;;;;;;;;;;10.10;99.90;;;;;;5032216;28;20308;-65
2023/12/26 03:10:39;;;;;;;;;;;10.10;99.90;;;;;;5033340;28;19921;-66
2023/12/26 03:13:07;;;;;;;;;;;10.00;99.90;;;;;;5032777;28;19971;-66
2023/12/26 03:15:34;;;;;;;;;;;10.00;99.90;;;;;;5032970;28;19928;-65
2023/12/26 03:18:04;;;;;;;;;;;10.00;99.90;;;;;;5032010;28;20339;-65
2023/12/26 03:20:32;;;;;;;;;;;9.90;99.90;;;;;;5025360;28;20339;-65
2023/12/26 03:23:00;;;;;;;;;;;9.90;99.90;;;;;;5032769;28;20388;-65
2023/12/26 03:25:29;;;;;;;;;;;9.80;99.90;;;;;;5032259;28;19975;-64
2023/12/26 03:27:57;;;;;;;;;;;9.80;99.90;;;;;;5033752;28;20023;-64
2023/12/26 03:30:25;;;;;;;;;;;9.80;99.90;;;;;;5032780;28;19928;-65
2023/12/26 03:32:53;;;;;;;;;;;9.80;99.90;;;;;;5032678;28;20339;-65
2023/12/26 03:35:23;;;;;;;;;;;9.80;99.90;;;;;;5032425;28;19924;-65
2023/12/26 03:37:50;;;;;;;;;;;9.80;99.90;;;;;;5031699;28;19975;-65
2023/12/26 03:40:18;;;;;;;;;;;9.80;99.90;;;;;;5032315;28;19971;-66
2023/12/26 03:42:46;;;;;;;;;;;9.70;99.90;;;;;;5032570;28;19967;-66
2023/12/26 03:45:14;;;;;;;;;;;9.80;99.90;;;;;;5032304;28;20311;-66
2023/12/26 03:47:42;;;;;;;;;;;9.80;99.90;;;;;;5025741;28;19999;-66
2023/12/26 03:50:10;;;;;;;;;;;9.70;99.90;;;;;;5026160;28;19921;-65
2023/12/26 03:52:40;;;;;;;;;;;9.70;99.90;;;;;;5032393;28;19921;-66
2023/12/26 03:55:10;;;;;;;;;;;9.80;99.90;;;;;;5031893;28;19928;-66
2023/12/26 03:57:39;;;;;;;;;;;9.80;99.90;;;;;;5023694;28;19931;-66
2023/12/26 04:00:08;;;;;;;;;;;9.80;99.90;;;;;;5023473;28;19921;-68
2023/12/26 04:02:36;;;;;;;;;;;9.80;99.90;;;;;;5032207;28;19921;-66
2023/12/26 04:05:04;;;;;;;;;;;9.80;99.90;;;;;;5031986;28;19964;-66
2023/12/26 04:07:32;;;;;;;;;;;9.80;99.90;;;;;;5030578;28;19921;-67
2023/12/26 04:10:02;;;;;;;;;;;9.80;99.90;;;;;;5036295;28;19925;-67
2023/12/26 04:12:29;;;;;;;;;;;9.80;99.90;;;;;;5030894;28;19975;-67
2023/12/26 04:14:57;;;;;;;;;;;9.80;99.90;;;;;;5031550;28;19921;-66
2023/12/26 04:17:25;;;;;;;;;;;9.80;99.90;;;;;;5031617;28;19921;-66
2023/12/26 04:19:53;;;;;;;;;;;9.80;99.90;;;;;;5031131;28;19928;-66
2023/12/26 04:22:21;;;;;;;;;;;9.80;99.90;;;;;;5032229;28;19921;-66
2023/12/26 04:24:48;;;;;;;;;;;9.80;99.90;;;;;;5031546;28;19925;-66
2023/12/26 04:27:17;;;;;;;;;;;9.80;99.90;;;;;;5030989;28;19925;-66
2023/12/26 04:29:45;;;;;;;;;;;9.80;99.90;;;;;;5030948;28;19932;-66
2023/12/26 04:32:13;;;;;;;;;;;9.80;99.90;;;;;;5031371;28;19928;-66
2023/12/26 04:34:41;;;;;;;;;;;9.80;99.90;;;;;;5031630;28;19971;-66
2023/12/26 04:37:09;;;;;;;;;;;9.80;99.90;;;;;;5030658;28;19964;-66
2023/12/26 04:39:36;;;;;;;;;;;9.80;99.90;;;;;;5030177;28;19929;-66
2023/12/26 04:42:04;;;;;;;;;;;9.70;99.90;;;;;;5031412;28;19969;-66
2023/12/26 04:44:33;;;;;;;;;;;9.70;99.90;;;;;;5031302;28;19921;-66
2023/12/26 04:47:01;;;;;;;;;;;9.70;99.90;;;;;;5031006;28;19921;-65
2023/12/26 04:49:29;;;;;;;;;;;9.80;99.90;;;;;;5024480;28;20336;-66
2023/12/26 04:51:57;;;;;;;;;;;9.80;99.90;;;;;;5036892;28;19921;-66
2023/12/26 04:54:25;;;;;;;;;;;9.80;99.90;;;;;;5030814;28;19921;-66
2023/12/26 04:56:52;;;;;;;;;;;9.80;99.90;;;;;;5031151;28;19975;-66
2023/12/26 04:59:20;;;;;;;;;;;9.80;99.90;;;;;;5030082;28;19948;-67
2023/12/26 05:01:52;;;;;;;;;;;9.80;99.90;;;;;;5031442;28;19927;-67
2023/12/26 05:04:20;;;;;;;;;;;9.80;99.90;;;;;;5030582;28;19936;-67
2023/12/26 05:06:48;;;;;;;;;;;9.80;99.90;;;;;;5030995;28;20008;-66
2023/12/26 05:09:16;;;;;;;;;;;9.80;99.90;;;;;;5029832;28;20000;-66
2023/12/26 05:11:44;;;;;;;;;;;9.80;99.90;;;;;;5037475;28;19961;-66
2023/12/26 05:14:12;;;;;;;;;;;9.80;99.90;;;;;;5030852;28;19968;-66
2023/12/26 05:16:42;;;;;;;;;;;9.80;99.90;;;;;;5022734;28;19927;-67
2023/12/26 05:19:14;;;;;;;;;;;9.80;99.90;;;;;;5032534;28;19924;-66
2023/12/26 05:21:42;;;;;;;;;;;9.80;99.90;;;;;;5029497;28;19921;-66
2023/12/26 05:24:09;;;;;;;;;;;9.80;99.90;;;;;;5030383;28;19921;-66
2023/12/26 05:26:40;;;;;;;;;;;9.70;99.90;;;;;;5033957;28;20422;-67
2023/12/26 05:29:09;;;;;;;;;;;9.80;99.90;;;;;;5025744;28;20402;-66
2023/12/26 05:31:38;;;;;;;;;;;9.70;99.90;;;;;;5028878;28;20432;-66
2023/12/26 05:34:07;;;;;;;;;;;9.70;99.90;;;;;;5030066;28;19956;-66
2023/12/26 05:36:36;;;;;;;;;;;9.70;99.90;;;;;;5021887;28;19928;-67
2023/12/26 05:39:04;;;;;;;;;;;9.70;99.90;;;;;;5026760;28;19921;-66
2023/12/26 05:41:32;;;;;;;;;;;9.70;99.90;;;;;;5041470;28;19927;-67
2023/12/26 05:44:00;;;;;;;;;;;9.60;99.90;;;;;;5028681;28;20502;-66
2023/12/26 05:46:31;;;;;;;;;;;9.60;99.90;;;;;;5027836;28;19921;-67
2023/12/26 05:48:58;;;;;;;;;;;9.60;99.90;;;;;;5023523;28;19928;-67
2023/12/26 05:51:27;;;;;;;;;;;9.50;99.90;;;;;;5031704;28;19935;-67
2023/12/26 05:53:59;;;;;;;;;;;9.50;99.90;;;;;;5034656;28;19921;-66
2023/12/26 05:56:27;;;;;;;;;;;9.50;99.90;;;;;;5029722;28;20019;-66
2023/12/26 05:58:54;;;;;;;;;;;9.40;99.90;;;;;;5032343;28;19987;-66
2023/12/26 06:01:22;;;;;;;;;;;9.40;99.90;;;;;;5032438;28;20296;-66
2023/12/26 06:03:50;;;;;;;;;;;9.40;99.90;;;;;;5030269;28;19927;-66
2023/12/26 06:06:19;;;;;;;;;;;9.40;99.90;;;;;;5031261;28;20011;-66
2023/12/26 06:08:47;;;;;;;;;;;9.30;99.90;;;;;;5027524;28;19976;-66
2023/12/26 06:11:16;;;;;;;;;;;9.30;99.90;;;;;;5033376;28;19921;-65
2023/12/26 06:13:44;;;;;;;;;;;9.30;99.90;;;;;;5031642;28;19979;-65
2023/12/26 06:16:12;;;;;;;;;;;9.40;99.90;;;;;;5032871;28;20391;-65
2023/12/26 06:18:40;;;;;;;;;;;9.30;99.90;;;;;;5029656;28;20644;-66
2023/12/26 06:21:07;;;;;;;;;;;9.30;99.90;;;;;;5032519;28;19928;-66
2023/12/26 06:23:35;;;;;;;;;;;9.30;99.90;;;;;;5028656;28;20745;-66
2023/12/26 06:26:03;;;;;;;;;;;9.30;99.90;;;;;;5029875;28;20467;-67
2023/12/26 06:28:36;;;;;;;;;;;9.30;99.90;;;;;;5028560;28;19921;-66
2023/12/26 06:31:04;;;;;;;;;;;9.40;99.90;;;;;;5032793;28;20351;-66
2023/12/26 06:33:32;;;;;;;;;;;9.40;99.90;;;;;;5030650;28;19928;-65
2023/12/26 06:36:00;;;;;;;;;;;9.40;99.90;;;;;;5027262;28;19921;-66
2023/12/26 06:38:28;;;;;;;;;;;9.30;99.90;;;;;;5029514;28;19921;-66
2023/12/26 06:40:55;;;;;;;;;;;9.40;99.90;;;;;;5030238;28;19921;-66
2023/12/26 06:43:23;;;;;;;;;;;9.40;99.90;;;;;;5029265;28;19968;-66
2023/12/26 06:45:52;;;;;;;;;;;9.40;99.90;;;;;;5033457;28;20323;-66
2023/12/26 06:48:20;;;;;;;;;;;9.40;99.90;;;;;;5030087;28;20331;-66
2023/12/26 06:50:48;;;;;;;;;;;9.30;99.90;;;;;;5031210;28;20003;-67
2023/12/26 06:53:16;;;;;;;;;;;9.40;99.90;;;;;;5014749;28;20373;-65
2023/12/26 06:55:44;;;;;;;;;;;9.40;99.90;;;;;;5032336;28;19944;-65
2023/12/26 06:58:11;;;;;;;;;;;9.40;99.90;;;;;;5033045;28;20016;-64
2023/12/26 07:00:39;;;;;;;;;;;9.30;99.90;;;;;;5033035;28;19921;-64
2023/12/26 07:03:08;;;;;;;;;;;9.40;99.90;;;;;;5033183;28;19935;-65
2023/12/26 07:05:36;;;;;;;;;;;9.30;99.90;;;;;;5031187;28;19925;-65
2023/12/26 07:08:05;;;;;;;;;;;9.40;99.90;;;;;;5037976;28;19921;-64
2023/12/26 07:10:33;;;;;;;;;;;9.30;99.90;;;;;;5033431;28;20384;-65
2023/12/26 07:13:00;;;;;;;;;;;9.30;99.90;;;;;;5033260;28;19921;-66
2023/12/26 07:15:28;;;;;;;;;;;9.30;99.90;;;;;;5031850;28;19925;-65
2023/12/26 07:17:56;;;;;;;;;;;9.30;99.90;;;;;;5032766;28;20291;-65
2023/12/26 07:20:28;;;;;;;;;;;9.20;99.90;;;;;;5033158;28;19921;-65
2023/12/26 07:22:55;;;;;;;;;;;9.30;99.90;;;;;;5033188;28;20368;-64
2023/12/26 07:25:23;;;;;;;;;;;9.30;99.90;;;;;;5032729;28;19921;-66
2023/12/26 07:27:51;;;;;;;;;;;9.30;99.90;;;;;;5024233;28;20427;-66
2023/12/26 07:30:19;;;;;;;;;;;9.30;99.90;;;;;;5025465;28;19925;-64
2023/12/26 07:32:47;;;;;;;;;;;9.30;99.90;;;;;;5032510;28;19940;-64
2023/12/26 07:35:15;;;;;;;;;;;9.40;99.90;;;;;;5036893;28;19935;-64
2023/12/26 07:37:45;;;;;;;;;;;9.40;99.90;;;;;;5035097;28;20395;-64
2023/12/26 07:40:13;;;;;;;;;;;9.40;99.90;;;;;;5032632;28;19928;-65
2023/12/26 07:42:41;;;;;;;;;;;9.40;99.90;;;;;;5032426;28;20557;-66
2023/12/26 07:45:09;;;;;;;;;;;9.40;99.90;;;;;;5031701;28;19921;-65
2023/12/26 07:47:37;;;;;;;;;;;9.40;99.90;;;;;;5029730;28;20376;-66
2023/12/26 07:50:05;;;;;;;;;;;9.40;99.90;;;;;;5032132;28;19921;-65
2023/12/26 07:52:36;;;;;;;;;;;9.40;99.90;;;;;;5036468;28;20011;-65
2023/12/26 07:55:05;;;;;;;;;;;9.40;99.90;;;;;;5030407;28;19925;-65
2023/12/26 07:57:33;;;;;;;;;;;9.40;99.90;;;;;;5029600;28;19920;-66
2023/12/26 08:00:01;;;;;;;;;;;9.40;99.90;;;;;;5034147;28;19978;-67
2023/12/26 08:02:29;;;;;;;;;;;9.40;99.90;;;;;;5032160;28;19982;-66
2023/12/26 08:04:57;;;;;;;;;;;9.40;99.90;;;;;;5034559;28;19925;-65
2023/12/26 08:07:25;;;;;;;;;;;9.40;99.90;;;;;;5031990;28;19921;-67
2023/12/26 08:09:52;;;;;;;;;;;9.50;99.90;;;;;;5033209;28;20039;-66
2023/12/26 08:12:22;;;;;;;;;;;9.40;99.90;;;;;;5031931;28;19921;-66
2023/12/26 08:14:49;;;;;;;;;;;9.50;99.90;;;;;;5027196;28;19921;-64
2023/12/26 08:17:17;;;;;;;;;;;9.40;99.90;;;;;;5031261;28;20363;-66
2023/12/26 08:19:45;;;;;;;;;;;9.50;99.90;;;;;;5030620;28;19927;-65
2023/12/26 08:22:13;;;;;;;;;;;9.50;99.90;;;;;;5031259;28;19925;-68
2023/12/26 08:24:40;;;;;;;;;;;9.50;99.90;;;;;;5031539;28;20387;-66
2023/12/26 08:27:08;;;;;;;;;;;9.50;99.90;;;;;;5030219;28;19927;-64
2023/12/26 08:29:37;;;;;;;;;;;9.50;99.90;;;;;;5020758;28;19929;-64
2023/12/26 08:32:05;;;;;;;;;;;9.50;99.90;;;;;;5020535;28;19929;-64
2023/12/26 08:34:33;;;;;;;;;;;9.60;99.90;;;;;;5022328;28;19960;-64
2023/12/26 08:37:01;;;;;;;;;;;9.50;99.90;;;;;;5019222;28;19925;-64
2023/12/26 08:39:28;;;;;;;;;;;9.50;99.90;;;;;;5021637;28;20021;-64
2023/12/26 08:41:56;;;;;;;;;;;9.50;99.90;;;;;;5021613;28;19939;-65
2023/12/26 08:44:24;;;;;;;;;;;9.50;99.90;;;;;;5020147;28;19929;-66
2023/12/26 08:46:53;;;;;;;;;;;9.60;99.90;;;;;;5019821;28;20015;-64
2023/12/26 08:49:21;;;;;;;;;;;9.60;99.90;;;;;;5018384;28;21481;-65
2023/12/26 08:51:49;;;;;;;;;;;9.60;99.90;;;;;;5019852;28;20853;-65
2023/12/26 08:54:17;;;;;;;;;;;9.60;99.90;;;;;;5020502;28;19925;-66
2023/12/26 08:56:44;;;;;;;;;;;9.60;99.90;;;;;;5019968;28;19921;-65
2023/12/26 08:59:12;;;;;;;;;;;9.60;99.90;;;;;;5017177;28;19971;-66
2023/12/26 09:01:40;;;;;;;;;;;9.60;99.90;;;;;;5020558;28;19933;-65
2023/12/26 09:04:10;;;;;;;;;;;9.70;99.90;;;;;;5020262;28;20239;-64
2023/12/26 09:06:38;;;;;;;;;;;9.70;99.90;;;;;;5019703;28;20003;-64
2023/12/26 09:09:06;;;;;;;;;;;9.70;99.90;;;;;;5017705;28;19964;-66
2023/12/26 09:11:34;;;;;;;;;;;9.70;99.90;;;;;;5022416;28;20280;-65
2023/12/26 09:14:02;;;;;;;;;;;9.70;99.90;;;;;;5021950;28;19936;-65
2023/12/26 09:16:30;;;;;;;;;;;9.70;99.90;;;;;;5019844;28;19929;-65
2023/12/26 09:18:57;;;;;;;;;;;9.70;99.90;;;;;;5017652;28;19978;-65
2023/12/26 09:21:26;;;;;;;;;;;9.80;99.90;;;;;;5021691;28;20698;-66
2023/12/26 09:23:54;;;;;;;;;;;9.70;99.90;;;;;;5019957;28;19965;-65
2023/12/26 09:26:24;;;;;;;;;;;9.80;99.90;;;;;;5019947;28;19929;-65
2023/12/26 09:28:51;;;;;;;;;;;9.80;99.90;;;;;;5015304;28;19933;-66
2023/12/26 09:31:19;;;;;;;;;;;9.80;99.90;;;;;;5019820;28;19929;-65
2023/12/26 09:33:48;;;;;;;;;;;9.80;99.90;;;;;;5018999;28;20435;-66
2023/12/26 09:36:16;;;;;;;;;;;9.90;99.90;;;;;;5020167;28;20307;-66
2023/12/26 09:38:45;;;;;;;;;;;9.90;99.90;;;;;;5017267;28;19920;-66
2023/12/26 09:41:14;;;;;;;;;;;9.90;99.90;;;;;;5022035;28;20388;-64
2023/12/26 09:43:42;;;;;;;;;;;9.90;99.90;;;;;;5020914;28;19979;-65
2023/12/26 09:46:09;;;;;;;;;;;9.90;99.90;;;;;;5021783;28;19928;-66
2023/12/26 09:48:37;;;;;;;;;;;9.90;99.90;;;;;;5018819;28;20426;-64
2023/12/26 09:51:10;;;;;;;;;;;9.90;99.90;;;;;;5019810;28;19929;-64
2023/12/26 09:53:39;;;;;;;;;;;9.90;99.90;;;;;;5020785;28;20043;-64
2023/12/26 09:56:09;;;;;;;;;;;10.10;99.90;;;;;;5019438;28;20383;-64
2023/12/26 09:58:42;;;;;;;;;;;10.30;99.90;;;;;;5016907;28;21017;-64
2023/12/26 10:01:12;;;;;;;;;;;10.20;99.90;;;;;;5019063;28;19998;-64
2023/12/26 10:03:41;;;;;;;;;;;10.20;99.90;;;;;;5018486;28;20320;-63
2023/12/26 10:06:09;;;;;;;;;;;10.20;99.90;;;;;;5017284;28;20411;-64
2023/12/26 10:08:37;;;;;;;;;;;10.10;99.90;;;;;;5018704;28;19987;-64
2023/12/26 10:11:05;;;;;;;;;;;9.90;99.90;;;;;;5018440;28;20319;-65
2023/12/26 10:13:43;;;;;;;;;;;9.80;99.90;;;;;;5018091;28;19929;-64
2023/12/26 10:16:11;;;;;;;;;;;9.80;99.90;;;;;;5018243;28;19936;-64
2023/12/26 10:18:39;;;;;;;;;;;9.80;99.90;;;;;;5017840;28;20020;-64
2023/12/26 10:21:07;;;;;;;;;;;9.90;99.90;;;;;;5018107;28;19999;-64
2023/12/26 10:23:35;;;;;;;;;;;9.80;99.90;;;;;;5018392;28;19929;-63
2023/12/26 10:26:03;;;;;;;;;;;9.90;99.90;;;;;;5019001;28;19928;-63
2023/12/26 10:28:33;;;;;;;;;;;10.00;99.90;;;;;;5016820;28;19931;-63
2023/12/26 10:31:09;;;;;;;;;;;10.00;99.90;;;;;;5017648;28;19999;-63
2023/12/26 10:33:37;;;;;;;;;;;10.10;99.90;;;;;;5018741;28;19932;-62
2023/12/26 10:36:06;;;;;;;;;;;10.10;99.90;;;;;;5021124;28;19929;-63
2023/12/26 10:38:34;;;;;;;;;;;10.00;99.90;;;;;;5022587;28;19925;-62
2023/12/26 10:41:06;;;;;;;;;;;10.00;99.90;;;;;;5023461;28;19929;-63
2023/12/26 10:43:34;;;;;;;;;;;10.10;99.90;;;;;;5023576;28;19925;-63
2023/12/26 10:46:02;;;;;;;;;;;10.10;99.90;;;;;;5024274;28;19929;-63
2023/12/26 10:48:32;;;;;;;;;;;10.20;99.90;;;;;;5021693;28;19929;-63
2023/12/26 10:51:01;;;;;;;;;;;10.20;99.90;;;;;;5021774;28;19963;-63
2023/12/26 10:53:35;;;;;;;;;;;10.20;99.90;;;;;;5021532;28;20032;-62
2023/12/26 10:56:04;;;;;;;;;;;10.20;99.90;;;;;;5021114;28;20347;-63
2023/12/26 10:58:32;;;;;;;;;;;10.20;99.90;;;;;;5020508;28;19936;-62
2023/12/26 11:00:59;;;;;;;;;;;10.30;99.90;;;;;;5021061;28;19936;-62
2023/12/26 11:03:26;;;;;;;;;;;10.20;99.90;;;;;;5021789;28;19929;-62
2023/12/26 11:05:55;;;;;;;;;;;10.30;99.90;;;;;;5020160;28;19936;-63
2023/12/26 11:08:22;;;;;;;;;;;10.20;99.90;;;;;;5017489;28;19958;-62
2023/12/26 11:10:49;;;;;;;;;;;10.20;99.90;;;;;;5020536;28;19929;-63
2023/12/26 11:13:17;;;;;;;;;;;10.20;99.90;;;;;;5022086;28;19921;-63
2023/12/26 11:15:44;;;;;;;;;;;10.20;99.90;;;;;;5022222;28;19955;-63
2023/12/26 11:18:11;;;;;;;;;;;10.20;99.90;;;;;;5021353;28;20470;-63
2023/12/26 11:20:40;;;;;;;;;;;10.10;99.90;;;;;;5022904;28;19936;-63
2023/12/26 11:23:08;;;;;;;;;;;10.20;99.90;;;;;;5019896;28;19932;-64
2023/12/26 11:25:35;;;;;;;;;;;10.10;99.90;;;;;;5022691;28;19925;-64
2023/12/26 11:28:03;;;;;;;;;;;10.10;99.90;;;;;;5020907;28;19933;-64
2023/12/26 11:30:30;;;;;;;;;;;10.10;99.90;;;;;;5022135;28;19929;-64
2023/12/26 11:32:58;;;;;;;;;;;10.20;99.90;;;;;;5021335;28;20522;-64
2023/12/26 11:35:26;;;;;;;;;;;10.30;99.90;;;;;;5021378;28;20006;-63
2023/12/26 11:37:53;;;;;;;;;;;10.30;99.90;;;;;;5019271;28;19929;-64
2023/12/26 11:40:21;;;;;;;;;;;10.30;99.90;;;;;;5020832;28;19961;-63
2023/12/26 11:42:49;;;;;;;;;;;10.30;99.90;;;;;;5020460;28;20192;-63
2023/12/26 11:45:16;;;;;;;;;;;10.30;99.90;;;;;;5020619;28;20012;-63
2023/12/26 11:47:43;;;;;;;;;;;10.40;99.90;;;;;;5019668;28;19921;-63
2023/12/26 11:50:10;;;;;;;;;;;10.40;99.90;;;;;;5020432;28;20758;-64
2023/12/26 11:52:38;;;;;;;;;;;10.40;99.90;;;;;;5019913;28;20438;-64
2023/12/26 11:55:05;;;;;;;;;;;10.50;99.90;;;;;;5021029;28;19933;-63
2023/12/26 11:57:34;;;;;;;;;;;10.60;99.90;;;;;;5020838;28;19940;-63
2023/12/26 12:00:01;;;;;;;;;;;10.50;99.90;;;;;;5020388;28;19928;-64
2023/12/26 12:02:28;;;;;;;;;;;10.50;99.90;;;;;;5020923;28;19928;-63
2023/12/26 12:05:01;;;;;;;;;;;10.50;99.90;;;;;;5020319;28;19932;-63
2023/12/26 12:07:28;;;;;;;;;;;10.50;99.90;;;;;;5018715;28;19933;-64
2023/12/26 12:10:08;;;;;;;;;;;10.50;99.90;;;;;;5018863;28;20869;-64
2023/12/26 12:12:42;;;;;;;;;;;10.60;99.90;;;;;;5020362;28;19925;-63
2023/12/26 12:15:10;;;;;;;;;;;10.60;99.90;;;;;;5020812;28;19936;-64
2023/12/26 12:17:44;;;;;;;;;;;10.70;99.90;;;;;;5018686;28;19929;-63
2023/12/26 12:20:17;;;;;;;;;;;10.60;99.90;;;;;;5018838;28;19996;-64
2023/12/26 12:22:44;;;;;;;;;;;10.60;99.90;;;;;;5020403;28;20414;-64
2023/12/26 12:25:14;;;;;;;;;;;10.60;99.90;;;;;;5021084;28;20043;-64
2023/12/26 12:28:03;;;;;;;;;;;10.60;99.90;;;;;;5020113;28;19924;-64
2023/12/26 12:30:30;;;;;;;;;;;10.50;99.90;;;;;;5020256;28;19924;-63
2023/12/26 12:33:18;;;;;;;;;;;10.50;99.90;;;;;;5019737;28;19933;-64
2023/12/26 12:35:46;;;;;;;;;;;10.50;99.90;;;;;;5020009;28;19925;-64
2023/12/26 12:38:15;;;;;;;;;;;10.60;99.90;;;;;;5018614;28;19927;-63
2023/12/26 12:40:44;;;;;;;;;;;10.60;99.90;;;;;;5020093;28;19958;-64
2023/12/26 12:43:12;;;;;;;;;;;10.70;99.90;;;;;;5020721;28;20653;-64
2023/12/26 12:45:39;;;;;;;;;;;10.80;99.90;;;;;;5019962;28;20272;-63
2023/12/26 12:48:06;;;;;;;;;;;10.80;99.90;;;;;;5018992;28;19932;-63
2023/12/26 12:50:34;;;;;;;;;;;10.80;99.90;;;;;;5019982;28;19965;-64
2023/12/26 12:53:00;;;;;;;;;;;10.80;99.90;;;;;;5019338;28;20018;-64
2023/12/26 12:55:28;;;;;;;;;;;10.90;99.90;;;;;;5020055;28;19932;-64
2023/12/26 12:57:56;;;;;;;;;;;11.00;99.90;;;;;;5019067;28;20375;-64
2023/12/26 13:00:24;;;;;;;;;;;11.00;99.90;;;;;;5019766;28;19929;-64
2023/12/26 13:02:52;;;;;;;;;;;11.00;99.90;;;;;;5019333;28;19961;-64
2023/12/26 13:05:19;;;;;;;;;;;11.00;99.90;;;;;;5018735;28;19921;-63
2023/12/26 13:07:46;;;;;;;;;;;11.00;99.90;;;;;;5019051;28;19932;-63
2023/12/26 13:10:14;;;;;;;;;;;11.00;99.90;;;;;;5019000;28;19921;-64
2023/12/26 13:12:40;;;;;;;;;;;10.90;99.90;;;;;;5019894;28;20420;-63
2023/12/26 13:15:10;;;;;;;;;;;11.00;99.90;;;;;;5020261;28;20732;-64
2023/12/26 13:17:39;;;;;;;;;;;10.90;99.90;;;;;;5019412;28;20936;-63
2023/12/26 13:20:06;;;;;;;;;;;10.90;99.90;;;;;;5017968;28;19933;-64
2023/12/26 13:22:33;;;;;;;;;;;10.90;99.90;;;;;;5018513;28;19940;-64
2023/12/26 13:25:01;;;;;;;;;;;11.00;99.90;;;;;;5019400;28;19924;-63
2023/12/26 13:27:28;;;;;;;;;;;10.90;99.90;;;;;;5018548;28;19929;-63
2023/12/26 13:29:54;;;;;;;;;;;11.00;99.90;;;;;;5018596;28;20385;-63
2023/12/26 13:32:22;;;;;;;;;;;11.00;99.90;;;;;;5018100;28;20454;-64
2023/12/26 13:34:50;;;;;;;;;;;11.10;99.90;;;;;;5018309;28;20711;-64
2023/12/26 13:37:17;;;;;;;;;;;11.20;99.90;;;;;;5018969;28;19939;-64
2023/12/26 13:39:45;;;;;;;;;;;11.20;99.90;;;;;;5018689;28;19931;-63
2023/12/26 13:42:12;;;;;;;;;;;11.20;99.90;;;;;;5018985;28;20004;-64
2023/12/26 13:44:39;;;;;;;;;;;11.30;99.90;;;;;;5018583;28;20388;-64
2023/12/26 13:47:09;;;;;;;;;;;11.30;99.90;;;;;;5019414;28;20404;-64
2023/12/26 13:49:36;;;;;;;;;;;11.30;99.90;;;;;;5018033;28;19925;-64
2023/12/26 13:52:04;;;;;;;;;;;11.40;99.90;;;;;;5018166;28;19929;-64
2023/12/26 13:54:32;;;;;;;;;;;11.50;99.90;;;;;;5019069;28;19952;-64
2023/12/26 13:57:00;;;;;;;;;;;11.50;99.90;;;;;;5019411;28;19961;-63
2023/12/26 13:59:28;;;;;;;;;;;11.50;99.90;;;;;;5017111;28;19951;-64
2023/12/26 14:01:56;;;;;;;;;;;11.50;99.90;;;;;;5019162;28;19935;-64
2023/12/26 14:04:23;;;;;;;;;;;11.60;99.90;;;;;;5019456;28;19936;-66
2023/12/26 14:06:52;;;;;;;;;;;11.50;99.90;;;;;;5018933;28;20462;-65
2023/12/26 14:09:21;;;;;;;;;;;11.70;99.90;;;;;;5016269;28;20468;-65
2023/12/26 14:11:48;;;;;;;;;;;11.90;99.90;;;;;;5022172;28;20164;-66
2023/12/26 14:14:16;;;;;;;;;;;12.00;99.90;;;;;;5022189;28;19937;-65
2023/12/26 14:16:44;;;;;;;;;;;11.70;99.90;;;;;;5023392;28;19928;-64
2023/12/26 14:19:12;;;;;;;;;;;11.60;99.90;;;;;;5020385;28;20011;-65
2023/12/26 14:21:40;;;;;;;;;;;11.50;99.90;;;;;;5023312;28;20022;-65
2023/12/26 14:24:08;;;;;;;;;;;11.50;99.90;;;;;;5021445;28;20401;-65
2023/12/26 14:26:37;;;;;;;;;;;11.40;99.90;;;;;;5023307;28;19933;-65
2023/12/26 14:29:05;;;;;;;;;;;11.30;99.90;;;;;;5019916;28;19929;-65